.
WxDataArchive / Data Records for 2008-06-24
2008-06-23 June 2008 2008-06-25

Data Records for Tuesday, 24 June 2008

Time	Temp	Chill	HIndex	Humid	Dewpt	 Wind 	HiWind	WindDir	Rain 	Barom 
-----	----	-----	------	-----	-----	------	------	-------	-----	----- 
00:00	58.3	58.3	58.3	84	53.5	0	0	---	0.00	30.074 
00:05	58.1	58.1	58.1	85	53.6	0	0	---	0.00	30.071 
00:10	58.0	58.0	58.0	85	53.5	0	0	---	0.00	30.071 
00:15	57.6	57.6	57.6	85	53.1	0	0	---	0.00	30.070 
00:20	57.5	57.5	57.5	86	53.3	0	0	---	0.00	30.071 
00:25	57.3	57.3	57.3	87	53.5	0	0	---	0.00	30.072 
00:30	57.2	57.2	57.2	87	53.4	0	0	---	0.00	30.070 
00:35	57.0	57.0	57.0	88	53.5	0	0	---	0.00	30.072 
00:40	56.9	56.9	56.9	88	53.4	0	0	---	0.00	30.072 
00:45	56.7	56.7	56.7	88	53.2	0	0	---	0.00	30.072 
00:50	56.7	56.7	56.7	89	53.5	0	0	---	0.00	30.073 
00:55	56.6	56.6	56.6	89	53.4	0	0	---	0.00	30.074 
01:00	56.6	56.6	56.6	89	53.4	0	0	---	0.00	30.073 
01:05	56.7	56.7	56.7	90	53.8	0	0	---	0.00	30.075 
01:10	56.7	56.7	56.7	90	53.8	0	0	---	0.00	30.075 
01:15	56.7	56.7	56.7	90	53.8	0	0	---	0.00	30.077 
01:20	56.9	56.9	56.9	90	54.0	0	1	315	0.00	30.078 
01:25	57.0	57.0	57.0	91	54.4	0	0	---	0.00	30.077 
01:30	57.2	57.2	57.2	90	54.3	0	0	---	0.00	30.075 
01:35	57.3	57.3	57.3	90	54.4	0	1	315	0.00	30.074 
01:40	57.3	57.3	57.3	90	54.4	0	0	---	0.00	30.074 
01:45	57.3	57.3	57.3	89	54.1	0	0	---	0.00	30.074 
01:50	57.3	57.3	57.3	89	54.1	0	0	---	0.00	30.074 
01:55	57.2	57.2	57.2	89	54.0	0	0	---	0.00	30.073 
02:00	57.0	57.0	57.0	89	53.8	0	0	---	0.00	30.071 
02:05	56.9	56.9	56.9	89	53.7	0	0	---	0.00	30.070 
02:10	56.7	56.7	56.7	90	53.8	0	0	---	0.00	30.071 
02:15	56.6	56.6	56.6	90	53.7	0	0	---	0.00	30.069 
02:20	56.6	56.6	56.6	90	53.7	0	0	---	0.00	30.069 
02:25	56.5	56.5	56.5	90	53.6	0	0	---	0.00	30.067 
02:30	56.3	56.3	56.3	91	53.7	0	0	---	0.00	30.071 
02:35	56.2	56.2	56.2	91	53.6	0	0	---	0.00	30.072 
02:40	56.0	56.0	56.0	91	53.4	0	0	---	0.00	30.074 
02:45	55.9	55.9	55.9	91	53.3	0	0	---	0.00	30.072 
02:50	55.7	55.7	55.7	91	53.1	0	0	---	0.00	30.071 
02:55	55.9	55.9	55.9	92	53.6	0	0	---	0.00	30.072 
03:00	55.9	55.9	55.9	92	53.6	0	0	---	0.00	30.073 
03:05	55.9	55.9	55.9	92	53.6	0	0	---	0.00	30.073 
03:10	55.7	55.7	55.7	92	53.4	0	0	---	0.00	30.075 
03:15	55.9	55.9	55.9	92	53.6	0	0	---	0.00	30.080 
03:20	55.7	55.7	55.7	92	53.4	0	0	---	0.00	30.085 
03:25	55.7	55.7	55.7	93	53.7	0	0	---	0.00	30.087 
03:30	55.7	55.7	55.7	93	53.7	0	0	---	0.00	30.088 
03:35	55.7	55.7	55.7	93	53.7	0	0	---	0.00	30.087 
03:40	55.6	55.6	55.6	93	53.6	0	0	---	0.00	30.087 
03:45	55.6	55.6	55.6	93	53.6	0	0	---	0.00	30.086 
03:50	55.4	55.4	55.4	93	53.4	0	0	---	0.00	30.088 
03:55	55.4	55.4	55.4	93	53.4	0	0	---	0.00	30.089 
04:00	55.3	55.3	55.3	93	53.3	0	0	---	0.00	30.089 
04:05	55.3	55.3	55.3	93	53.3	0	0	---	0.00	30.089 
04:10	55.3	55.3	55.3	93	53.3	0	0	---	0.00	30.089 
04:15	55.1	55.1	55.1	93	53.1	0	0	---	0.00	30.089 
04:20	55.0	55.0	55.0	94	53.3	0	0	---	0.00	30.090 
04:25	55.0	55.0	55.0	94	53.3	0	0	---	0.00	30.088 
04:30	54.8	54.8	54.8	94	53.1	0	0	---	0.00	30.089 
04:35	54.8	54.8	54.8	94	53.1	0	0	---	0.00	30.090 
04:40	54.7	54.7	54.7	94	53.0	0	0	---	0.00	30.089 
04:45	54.5	54.5	54.5	94	52.8	0	0	---	0.00	30.098 
04:50	54.5	54.5	54.5	94	52.8	0	0	---	0.00	30.099 
04:55	54.5	54.5	54.5	94	52.8	0	0	---	0.00	30.103 
05:00	54.5	54.5	54.5	94	52.8	0	0	---	0.00	30.105 
05:05	54.5	54.5	54.5	94	52.8	0	0	---	0.00	30.107 
05:10	54.4	54.4	54.4	94	52.7	0	0	---	0.00	30.110 
05:15	54.4	54.4	54.4	94	52.7	0	0	---	0.00	30.112 
05:20	54.2	54.2	54.2	94	52.5	0	0	---	0.00	30.114 
05:25	54.1	54.1	54.1	94	52.4	0	0	---	0.00	30.118 
05:30	54.1	54.1	54.1	94	52.4	0	0	---	0.00	30.120 
05:35	54.2	54.2	54.2	95	52.8	0	0	---	0.00	30.121 
05:40	54.4	54.4	54.4	95	53.0	0	0	---	0.00	30.123 
05:45	54.4	54.4	54.4	95	53.0	0	0	---	0.00	30.124 
05:50	54.4	54.4	54.4	95	53.0	0	0	---	0.00	30.126 
05:55	54.4	54.4	54.4	95	53.0	0	0	---	0.00	30.124 
06:00	54.5	54.5	54.5	95	53.1	0	0	---	0.00	30.126 
06:05	54.8	54.8	54.8	95	53.4	0	0	---	0.00	30.129 
06:10	55.1	55.1	55.1	95	53.7	0	0	---	0.00	30.130 
06:15	55.4	55.4	55.4	96	54.3	0	0	---	0.00	30.132 
06:20	55.7	55.7	55.7	95	54.3	0	0	---	0.00	30.134 
06:25	56.0	56.0	56.0	95	54.6	0	1	315	0.00	30.134 
06:30	56.5	56.5	56.5	95	55.1	0	1	315	0.00	30.136 
06:35	56.9	56.9	56.9	95	55.5	0	1	315	0.00	30.137 
06:40	57.2	57.2	57.2	94	55.5	0	1	315	0.00	30.137 
06:45	57.8	57.8	57.8	94	56.1	0	0	---	0.00	30.137 
06:50	58.1	58.1	58.1	93	56.1	0	0	---	0.00	30.137 
06:55	58.4	58.4	58.4	92	56.1	0	1	315	0.00	30.137 
07:00	58.6	58.6	58.6	91	56.0	0	1	315	0.00	30.137 
07:05	58.9	58.9	58.9	89	55.7	0	1	315	0.00	30.141 
07:10	59.5	59.5	59.5	89	56.3	0	1	315	0.00	30.142 
07:15	60.2	60.2	60.2	87	56.3	0	1	315	0.00	30.144 
07:20	60.7	60.7	60.7	85	56.2	0	1	315	0.00	30.146 
07:25	61.3	61.3	61.3	84	56.4	0	1	315	0.00	30.149 
07:30	61.6	61.6	61.6	83	56.4	0	0	---	0.00	30.150 
07:35	62.1	62.1	62.1	81	56.2	0	1	315	0.00	30.149 
07:40	62.6	62.6	62.6	81	56.7	0	0	---	0.00	30.150 
07:45	63.2	63.2	63.2	80	56.9	0	2	315	0.00	30.151 
07:50	63.5	63.5	63.5	79	56.9	0	1	315	0.00	30.153 
07:55	63.9	63.9	63.9	79	57.3	0	1	315	0.00	30.152 
08:00	64.2	64.2	64.2	76	56.5	0	1	315	0.00	30.155 
08:05	64.8	64.8	64.8	77	57.4	0	1	315	0.00	30.158 
08:10	65.3	65.3	65.3	75	57.2	0	2	315	0.00	30.159 
08:15	65.6	65.6	65.6	74	57.1	0	1	315	0.00	30.162 
08:20	65.8	65.8	65.8	74	57.3	0	1	315	0.00	30.164 
08:25	66.3	66.3	66.3	76	58.5	0	1	315	0.00	30.165 
08:30	66.9	66.9	66.9	75	58.7	0	1	315	0.00	30.166 
08:35	67.3	67.3	67.3	72	58.0	0	2	315	0.00	30.166 
08:40	67.4	67.4	67.4	72	58.1	0	1	315	0.00	30.167 
08:45	67.6	67.6	67.6	71	57.9	0	1	315	0.00	30.164 
08:50	67.8	67.8	67.8	72	58.4	0	1	315	0.00	30.163 
08:55	67.6	67.6	67.6	72	58.2	0	1	315	0.00	30.162 
09:00	68.4	68.4	68.4	73	59.4	0	1	315	0.00	30.164 
09:05	68.9	68.9	68.9	71	59.1	0	2	315	0.00	30.164 
09:10	69.4	69.4	69.4	69	58.8	0	2	315	0.00	30.163 
09:15	69.6	69.6	69.6	66	57.7	0	2	315	0.00	30.164 
09:20	69.6	69.6	69.6	66	57.7	0	3	315	0.00	30.166 
09:25	69.8	69.8	69.8	68	58.7	0	1	315	0.00	30.167 
09:30	70.3	70.3	70.3	63	57.1	0	1	315	0.00	30.164 
09:35	70.9	70.9	70.9	67	59.4	1	2	315	0.00	30.161 
09:40	71.6	71.6	71.6	64	58.8	0	1	315	0.00	30.158 
09:45	72.0	72.0	72.0	62	58.3	0	2	315	0.00	30.154 
09:50	72.0	72.0	72.0	63	58.7	0	2	315	0.00	30.151 
09:55	72.3	72.3	72.3	62	58.5	0	3	315	0.00	30.150 
10:00	72.5	72.5	72.5	60	57.8	1	2	22	0.00	30.149 
10:05	72.5	72.5	72.5	64	59.6	1	3	22	0.00	30.151 
10:10	72.8	72.8	72.8	64	59.9	0	1	22	0.00	30.151 
10:15	73.2	73.2	73.2	58	57.5	0	2	22	0.00	30.154 
10:20	73.5	73.5	73.5	61	59.2	0	1	22	0.00	30.158 
10:25	73.7	73.7	73.7	60	58.9	0	2	22	0.00	30.153 
10:30	74.0	74.0	74.0	60	59.2	1	3	22	0.00	30.152 
10:35	74.9	74.9	74.9	62	61.0	0	3	45	0.00	30.155 
10:40	74.7	74.7	74.7	54	56.9	0	1	22	0.00	30.157 
10:45	74.6	74.6	74.6	55	57.3	0	3	22	0.00	30.162 
10:50	74.2	74.2	74.2	56	57.5	0	1	22	0.00	30.164 
10:55	74.6	74.6	74.6	58	58.8	1	4	22	0.00	30.163 
11:00	74.9	74.9	74.9	55	57.6	0	2	90	0.00	30.164 
11:05	74.4	74.4	74.4	55	57.2	0	2	338	0.00	30.167 
11:10	74.4	74.4	74.4	54	56.7	0	1	338	0.00	30.165 
11:15	74.4	74.4	74.4	57	58.2	0	2	338	0.00	30.167 
11:20	74.9	74.9	74.9	56	58.1	0	2	338	0.00	30.167 
11:25	75.3	75.3	77.7	55	58.0	0	4	338	0.00	30.175 
11:30	75.1	75.1	77.6	56	58.3	1	2	270	0.00	30.174 
11:35	75.3	75.3	77.7	54	57.5	0	2	270	0.00	30.174 
11:40	75.3	75.3	77.6	58	59.5	0	2	270	0.00	30.174 
11:45	75.1	75.1	77.6	56	58.3	1	2	270	0.00	30.167 
11:50	75.6	75.6	77.9	52	56.7	1	3	270	0.00	30.168 
11:55	76.1	76.1	78.1	52	57.2	1	2	270	0.00	30.168 
12:00	76.3	76.3	78.2	51	56.8	1	3	270	0.00	30.169 
12:05	76.3	76.3	78.2	50	56.3	1	3	270	0.00	30.171 
12:10	76.7	76.7	78.4	48	55.5	1	4	248	0.00	30.172 
12:15	76.8	76.8	78.5	50	56.7	1	3	225	0.00	30.171 
12:20	77.0	77.0	78.7	53	58.5	0	2	225	0.00	30.170 
12:25	77.4	77.4	79.0	54	59.4	0	2	225	0.00	30.166 
12:30	76.7	76.7	78.4	50	56.6	0	2	225	0.00	30.165 
12:35	76.0	76.0	78.1	51	56.5	1	3	270	0.00	30.166 
12:40	76.1	76.1	78.1	50	56.1	0	3	270	0.00	30.165 
12:45	77.0	77.0	78.7	54	59.1	0	2	0	0.00	30.163 
12:50	77.6	77.6	78.9	48	56.3	1	3	22	0.00	30.163 
12:55	77.4	77.4	78.6	45	54.4	0	3	0	0.00	30.163 
13:00	76.8	76.8	78.4	48	55.6	0	2	0	0.00	30.161 
13:05	76.5	76.5	78.3	51	57.0	0	2	0	0.00	30.157 
13:10	76.7	76.7	78.5	53	58.3	0	4	248	0.00	30.156 
13:15	76.8	76.8	78.3	43	52.6	1	4	248	0.00	30.151 
13:20	77.0	77.0	78.5	47	55.2	0	2	248	0.00	30.150 
13:25	76.5	76.5	78.1	42	51.7	1	3	315	0.00	30.151 
13:30	76.5	76.5	78.2	46	54.2	1	2	315	0.00	30.151 
13:35	76.7	76.7	78.3	46	54.3	1	3	315	0.00	30.148 
13:40	77.0	77.0	78.4	43	52.8	0	1	315	0.00	30.148 
13:45	77.7	77.7	78.8	45	54.6	0	2	315	0.00	30.148 
13:50	77.7	77.7	78.9	46	55.2	0	2	315	0.00	30.148 
13:55	77.2	77.2	78.6	46	54.8	0	2	315	0.00	30.148 
14:00	77.2	77.2	78.5	45	54.2	1	3	22	0.00	30.149 
14:05	77.6	77.6	78.8	46	55.2	1	3	22	0.00	30.150 
14:10	77.4	77.4	78.5	42	52.5	0	2	315	0.00	30.152 
14:15	77.2	77.2	78.5	44	53.6	0	2	315	0.00	30.150 
14:20	77.2	77.2	78.5	45	54.2	0	3	315	0.00	30.150 
14:25	77.7	77.7	79.0	49	57.0	0	1	292	0.00	30.149 
14:30	78.5	78.5	79.1	42	53.5	0	2	292	0.00	30.146 
14:35	78.3	78.3	78.8	38	50.6	0	1	292	0.00	30.148 
14:40	77.9	77.9	78.7	40	51.6	0	3	292	0.00	30.148 
14:45	77.6	77.6	78.7	44	53.9	0	2	315	0.00	30.149 
14:50	77.7	77.7	78.8	45	54.6	0	2	315	0.00	30.150 
14:55	77.9	77.9	78.7	41	52.3	0	3	315	0.00	30.150 
15:00	77.9	77.9	78.7	41	52.3	1	3	315	0.00	30.149 
15:05	77.4	77.4	78.5	42	52.5	1	2	315	0.00	30.150 
15:10	76.8	76.8	78.3	44	53.2	0	1	292	0.00	30.148 
15:15	76.8	76.8	78.0	38	49.2	0	2	292	0.00	30.150 
15:20	76.5	76.5	78.1	41	51.0	0	2	315	0.00	30.150 
15:25	76.5	76.5	78.1	43	52.3	0	1	315	0.00	30.150 
15:30	76.3	76.3	77.9	40	50.2	0	1	315	0.00	30.152 
15:35	76.3	76.3	78.0	41	50.8	0	2	315	0.00	30.152 
15:40	76.1	76.1	77.9	41	50.7	0	2	338	0.00	30.153 
15:45	76.0	76.0	77.9	41	50.6	0	2	338	0.00	30.153 
15:50	75.8	75.8	77.8	42	51.1	0	2	338	0.00	30.152 
15:55	75.8	75.8	77.8	42	51.1	0	2	338	0.00	30.153 
16:00	76.0	76.0	77.9	43	51.9	0	1	338	0.00	30.153 
16:05	76.0	76.0	78.0	44	52.5	0	2	338	0.00	30.153 
16:10	76.0	76.0	78.0	46	53.7	0	1	338	0.00	30.153 
16:15	76.1	76.1	78.1	47	54.4	0	2	338	0.00	30.153 
16:20	76.3	76.3	78.1	44	52.8	0	2	338	0.00	30.153 
16:25	76.3	76.3	78.2	48	55.1	0	1	338	0.00	30.153 
16:30	76.5	76.5	78.3	47	54.7	0	2	338	0.00	30.150 
16:35	76.1	76.1	78.0	46	53.8	0	2	338	0.00	30.151 
16:40	76.0	76.0	78.0	46	53.7	0	1	338	0.00	30.151 
16:45	75.8	75.8	78.0	48	54.7	0	1	338	0.00	30.149 
16:50	76.0	76.0	78.0	46	53.7	0	1	338	0.00	30.148 
16:55	76.8	76.8	78.4	48	55.6	0	1	338	0.00	30.145 
17:00	77.4	77.4	78.7	46	55.0	0	2	338	0.00	30.144 
17:05	77.6	77.6	78.8	46	55.2	1	2	338	0.00	30.137 
17:10	77.6	77.6	78.7	44	53.9	1	2	315	0.00	30.136 
17:15	77.4	77.4	78.7	47	55.6	0	1	315	0.00	30.135 
17:20	77.2	77.2	78.6	47	55.4	0	2	315	0.00	30.134 
17:25	77.0	77.0	78.5	48	55.8	0	2	315	0.00	30.133 
17:30	76.7	76.7	78.4	47	54.9	1	3	292	0.00	30.131 
17:35	76.3	76.3	78.2	48	55.1	1	2	292	0.00	30.131 
17:40	75.8	75.8	78.0	49	55.3	0	2	292	0.00	30.133 
17:45	75.6	75.6	77.9	50	55.6	0	2	292	0.00	30.133 
17:50	75.6	75.6	77.9	50	55.6	0	1	292	0.00	30.133 
17:55	75.8	75.8	78.0	51	56.4	0	1	292	0.00	30.130 
18:00	76.0	76.0	78.1	50	56.0	0	1	292	0.00	30.132 
18:05	76.0	76.0	78.1	50	56.0	0	1	292	0.00	30.128 
18:10	76.1	76.1	78.1	49	55.5	0	2	292	0.00	30.128 
18:15	76.1	76.1	78.1	48	55.0	0	1	292	0.00	30.124 
18:20	76.0	76.0	78.1	51	56.5	0	1	292	0.00	30.124 
18:25	76.0	76.0	78.1	50	56.0	0	2	292	0.00	30.123 
18:30	76.0	76.0	78.1	49	55.4	0	1	292	0.00	30.118 
18:35	76.0	76.0	78.1	50	56.0	0	1	292	0.00	30.118 
18:40	76.0	76.0	78.1	49	55.4	0	1	292	0.00	30.118 
18:45	75.8	75.8	78.0	50	55.8	0	1	292	0.00	30.118 
18:50	75.4	75.4	77.8	51	56.0	0	1	292	0.00	30.119 
18:55	75.3	75.3	77.7	52	56.4	0	0	---	0.00	30.118 
19:00	75.3	75.3	77.7	52	56.4	0	1	292	0.00	30.119 
19:05	75.1	75.1	77.6	52	56.3	0	0	---	0.00	30.115 
19:10	74.9	74.9	74.9	53	56.6	0	1	292	0.00	30.115 
19:15	74.6	74.6	74.6	53	56.3	0	0	---	0.00	30.114 
19:20	74.4	74.4	74.4	54	56.7	0	0	---	0.00	30.114 
19:25	74.0	74.0	74.0	55	56.8	0	1	292	0.00	30.113 
19:30	73.7	73.7	73.7	55	56.5	0	0	---	0.00	30.114 
19:35	73.5	73.5	73.5	55	56.3	0	0	---	0.00	30.114 
19:40	73.2	73.2	73.2	56	56.5	0	0	---	0.00	30.114 
19:45	72.7	72.7	72.7	57	56.6	0	0	---	0.00	30.113 
19:50	72.3	72.3	72.3	57	56.2	0	0	---	0.00	30.113 
19:55	72.0	72.0	72.0	58	56.4	0	0	---	0.00	30.112 
20:00	71.5	71.5	71.5	60	56.9	0	0	---	0.00	30.111 
20:05	71.1	71.1	71.1	61	57.0	0	0	---	0.00	30.106 
20:10	70.6	70.6	70.6	62	56.9	0	0	---	0.00	30.105 
20:15	70.3	70.3	70.3	62	56.7	0	0	---	0.00	30.103 
20:20	69.9	69.9	69.9	64	57.2	0	0	---	0.00	30.103 
20:25	69.4	69.4	69.4	65	57.1	0	0	---	0.00	30.102 
20:30	68.9	68.9	68.9	67	57.5	0	0	---	0.00	30.103 
20:35	68.4	68.4	68.4	67	57.0	0	0	---	0.00	30.103 
20:40	68.1	68.1	68.1	68	57.1	0	0	---	0.00	30.104 
20:45	67.8	67.8	67.8	69	57.2	0	0	---	0.00	30.107 
20:50	67.3	67.3	67.3	69	56.8	0	0	---	0.00	30.110 
20:55	66.9	66.9	66.9	70	56.8	0	0	---	0.00	30.114 
21:00	66.4	66.4	66.4	72	57.1	0	0	---	0.00	30.116 
21:05	66.3	66.3	66.3	73	57.4	0	0	---	0.00	30.112 
21:10	66.0	66.0	66.0	74	57.5	0	0	---	0.00	30.113 
21:15	65.6	65.6	65.6	75	57.5	0	0	---	0.00	30.113 
21:20	65.3	65.3	65.3	76	57.5	0	0	---	0.00	30.115 
21:25	65.0	65.0	65.0	77	57.6	0	0	---	0.00	30.115 
21:30	64.8	64.8	64.8	78	57.8	0	0	---	0.00	30.116 
21:35	64.5	64.5	64.5	79	57.8	0	0	---	0.00	30.117 
21:40	64.3	64.3	64.3	80	58.0	0	0	---	0.00	30.117 
21:45	64.0	64.0	64.0	81	58.0	0	0	---	0.00	30.118 
21:50	63.7	63.7	63.7	81	57.8	0	0	---	0.00	30.117 
21:55	63.4	63.4	63.4	82	57.8	0	0	---	0.00	30.118 
22:00	63.2	63.2	63.2	83	57.9	0	0	---	0.00	30.122 
22:05	62.9	62.9	62.9	83	57.7	0	0	---	0.00	30.120 
22:10	62.7	62.7	62.7	84	57.8	0	0	---	0.00	30.119 
22:15	62.6	62.6	62.6	84	57.7	0	0	---	0.00	30.118 
22:20	62.4	62.4	62.4	85	57.8	0	0	---	0.00	30.118 
22:25	62.1	62.1	62.1	85	57.5	0	0	---	0.00	30.118 
22:30	62.0	62.0	62.0	86	57.8	0	0	---	0.00	30.121 
22:35	62.0	62.0	62.0	87	58.1	0	0	---	0.00	30.119 
22:40	61.8	61.8	61.8	87	57.9	0	0	---	0.00	30.118 
22:45	61.6	61.6	61.6	87	57.7	0	0	---	0.00	30.116 
22:50	61.5	61.5	61.5	88	57.9	0	0	---	0.00	30.117 
22:55	61.5	61.5	61.5	88	57.9	0	0	---	0.00	30.117 
23:00	61.3	61.3	61.3	88	57.7	0	0	---	0.00	30.115 
23:05	61.3	61.3	61.3	88	57.7	0	0	---	0.00	30.115 
23:10	61.2	61.2	61.2	89	57.9	0	0	---	0.00	30.116 
23:15	61.0	61.0	61.0	89	57.7	0	0	---	0.00	30.118 
23:20	61.0	61.0	61.0	89	57.7	0	0	---	0.00	30.119 
23:25	60.9	60.9	60.9	89	57.6	0	0	---	0.00	30.118 
23:30	60.7	60.7	60.7	90	57.7	0	0	---	0.00	30.115 
23:35	60.5	60.5	60.5	90	57.5	0	0	---	0.00	30.115 
23:40	60.5	60.5	60.5	90	57.5	0	0	---	0.00	30.114 
23:45	60.4	60.4	60.4	90	57.4	0	0	---	0.00	30.114 
23:50	60.2	60.2	60.2	90	57.3	0	0	---	0.00	30.113 
23:55	60.1	60.1	60.1	91	57.5	0	0	---	0.00	30.113 

CoCoRaHS
IN-AL-39
A2 Web Hosting
Creative Commons License
GoDaddy
Look for:

loaded 2017-10-18 07:29:35 • last modified 2010-11-18 10:43:29
Privacy PolicyDisclaimer
• wx.awcolley.com is powered by PmWiki v.2002016 •
• all content (unless otherwise noted) © 2017 A W Colley